Time;durP1;ratioP1;P1;durP2;ratioP2;P2;SDS_P1;SDS_P2;PMS_P1;PMS_P2;Temp;Humidity;BMP_temperature;BMP_pressure;BME280_temperature;BME280_humidity;BME280_pressure;Samples;Min_cycle;Max_cycle;Signal;HPM_P1;HPM_P2
2023/08/09 00:00:36;;;;;;;0.82;0.82;;;;;;;19.42;nan;100316.88;4976454;28;20037;-80
2023/08/09 00:03:02;;;;;;;1.00;0.90;;;;;;;19.42;nan;100319.50;4981252;28;20114;-83
2023/08/09 00:05:28;;;;;;;0.80;0.70;;;;;;;19.40;nan;100324.88;4989065;28;20042;-81
2023/08/09 00:07:53;;;;;;;0.80;0.80;;;;;;;19.41;nan;100315.19;4992532;28;21015;-82
2023/08/09 00:10:18;;;;;;;0.65;0.65;;;;;;;19.41;nan;100316.03;4993368;28;20026;-82
2023/08/09 00:12:44;;;;;;;0.70;0.70;;;;;;;19.43;nan;100329.06;4974971;28;20034;-84
2023/08/09 00:15:09;;;;;;;0.70;0.70;;;;;;;19.42;nan;100332.66;4993754;28;20087;-81
2023/08/09 00:17:35;;;;;;;0.50;0.50;;;;;;;19.42;nan;100330.03;4993083;28;21029;-82
2023/08/09 00:20:00;;;;;;;0.68;0.68;;;;;;;19.40;nan;100317.00;4995329;28;20381;-82
2023/08/09 00:22:26;;;;;;;0.50;0.50;;;;;;;19.40;nan;100311.72;4993815;28;20550;-81
2023/08/09 00:24:52;;;;;;;0.60;0.60;;;;;;;19.41;nan;100304.66;4999003;28;20103;-81
2023/08/09 00:27:17;;;;;;;1.58;1.05;;;;;;;19.41;nan;100309.94;4976518;28;20030;-82
2023/08/09 00:29:42;;;;;;;0.75;0.73;;;;;;;19.40;nan;100302.94;4993933;28;20054;-81
2023/08/09 00:32:08;;;;;;;0.60;0.60;;;;;;;19.41;nan;100299.41;4991264;28;20085;-81
2023/08/09 00:34:33;;;;;;;0.70;0.70;;;;;;;19.41;nan;100294.97;5000412;28;22236;-80
2023/08/09 00:36:59;;;;;;;0.80;0.80;;;;;;;19.40;nan;100297.69;4996201;28;20034;-79
2023/08/09 00:39:25;;;;;;;0.93;0.90;;;;;;;19.41;nan;100296.75;4992163;28;20030;-81
2023/08/09 00:41:50;;;;;;;0.73;0.73;;;;;;;19.41;nan;100305.50;4991883;28;20050;-81
2023/08/09 00:44:16;;;;;;;0.60;0.60;;;;;;;19.42;nan;100301.06;5002094;28;20042;-81
2023/08/09 00:46:42;;;;;;;0.70;0.70;;;;;;;19.41;nan;100320.47;4989935;28;20034;-79
2023/08/09 00:49:07;;;;;;;0.45;0.45;;;;;;;19.41;nan;100316.03;4993342;28;20816;-81
2023/08/09 00:51:33;;;;;;;0.70;0.65;;;;;;;19.41;nan;100317.81;4993122;28;20032;-83
2023/08/09 00:53:58;;;;;;;0.77;0.77;;;;;;;19.41;nan;100313.41;4978143;28;20038;-82
2023/08/09 00:56:24;;;;;;;0.80;0.80;;;;;;;19.41;nan;100315.19;4974889;28;20114;-81
2023/08/09 00:58:49;;;;;;;0.77;0.77;;;;;;;19.41;nan;100309.94;4976735;28;20026;-81
2023/08/09 01:01:14;;;;;;;0.43;0.43;;;;;;;19.40;nan;100303.81;4992115;28;20038;-81
2023/08/09 01:03:40;;;;;;;0.60;0.60;;;;;;;19.41;nan;100309.94;4994387;28;20034;-82
2023/08/09 01:06:12;;;;;;;0.70;0.70;;;;;;;19.41;nan;100310.75;4996130;28;20056;-82
2023/08/09 01:08:49;;;;;;;0.50;0.50;;;;;;;19.41;nan;100302.03;4991481;28;20505;-81
2023/08/09 01:11:41;;;;;;;0.70;0.70;;;;;;;19.42;nan;100306.34;4994223;28;20056;-80
2023/08/09 01:14:07;;;;;;;1.20;0.70;;;;;;;19.41;nan;100318.66;5001707;28;20036;-81
2023/08/09 01:16:34;;;;;;;0.70;0.70;;;;;;;19.41;nan;100320.47;4998465;28;20096;-84
2023/08/09 01:18:59;;;;;;;0.73;0.73;;;;;;;19.41;nan;100317.81;4996122;28;20030;-82
2023/08/09 01:21:26;;;;;;;0.60;0.60;;;;;;;19.41;nan;100315.19;4980477;28;20052;-81
2023/08/09 01:23:52;;;;;;;1.05;0.63;;;;;;;19.41;nan;100317.81;4974666;28;20080;-80
2023/08/09 01:26:18;;;;;;;0.70;0.70;;;;;;;19.41;nan;100318.66;4993636;28;20441;-80
2023/08/09 01:28:43;;;;;;;0.60;0.60;;;;;;;19.40;nan;100322.25;4997173;28;20030;-81
2023/08/09 01:31:08;;;;;;;0.73;0.73;;;;;;;19.41;nan;100325.72;4996703;28;20063;-81
2023/08/09 01:33:34;;;;;;;0.70;0.70;;;;;;;19.41;nan;100321.28;4992788;28;20121;-80
2023/08/09 01:36:16;;;;;;;0.60;0.60;;;;;;;19.41;nan;100331.81;5002068;28;20386;-81
2023/08/09 01:38:50;;;;;;;0.70;0.70;;;;;;;19.41;nan;100334.47;4980118;28;20038;-81
2023/08/09 01:41:16;;;;;;;0.70;0.70;;;;;;;19.41;nan;100328.34;4995871;28;20150;-81
2023/08/09 01:43:43;;;;;;;0.50;0.50;;;;;;;19.42;nan;100327.41;4997203;28;20109;-80
2023/08/09 01:46:08;;;;;;;0.80;0.80;;;;;;;19.42;nan;100345.81;4993741;28;20033;-82
2023/08/09 01:48:35;;;;;;;0.77;0.77;;;;;;;19.40;nan;100351.22;4979699;28;20026;-82
2023/08/09 01:51:00;;;;;;;0.65;0.65;;;;;;;19.41;nan;100333.63;4996008;28;20493;-83
2023/08/09 01:53:25;;;;;;;0.82;0.60;;;;;;;19.40;nan;100329.28;4999149;28;20052;-80
2023/08/09 01:55:52;;;;;;;0.60;0.60;;;;;;;19.41;nan;100331.81;5003462;28;20497;-81
2023/08/09 01:58:17;;;;;;;0.70;0.65;;;;;;;19.41;nan;100331.00;4993636;28;20030;-82
2023/08/09 02:00:43;;;;;;;0.73;0.73;;;;;;;19.41;nan;100331.00;4994757;28;20547;-80
2023/08/09 02:03:08;;;;;;;0.70;0.70;;;;;;;19.41;nan;100323.09;5003447;28;20033;-81
2023/08/09 02:05:33;;;;;;;0.73;0.73;;;;;;;19.41;nan;100325.72;4997152;28;20112;-80
2023/08/09 02:07:59;;;;;;;0.80;0.80;;;;;;;19.41;nan;100323.09;4994084;28;20474;-80
2023/08/09 02:10:24;;;;;;;0.68;0.68;;;;;;;19.40;nan;100316.13;4995246;28;20034;-82
2023/08/09 02:12:51;;;;;;;0.70;0.70;;;;;;;19.41;nan;100320.47;4977957;28;20038;-81
2023/08/09 02:15:16;;;;;;;0.68;0.68;;;;;;;19.40;nan;100324.88;5007702;28;20348;-82
2023/08/09 02:17:43;;;;;;;0.57;0.57;;;;;;;19.41;nan;100331.00;4995029;28;20062;-80
2023/08/09 02:20:10;;;;;;;0.80;0.80;;;;;;;19.41;nan;100325.72;4993883;28;20478;-81
2023/08/09 02:22:39;;;;;;;0.70;0.70;;;;;;;19.40;nan;100329.28;4998211;28;20053;-79
2023/08/09 02:25:06;;;;;;;0.73;0.60;;;;;;;19.41;nan;100331.00;5001806;28;20057;-81
2023/08/09 02:27:32;;;;;;;0.57;0.57;;;;;;;19.41;nan;100334.47;4978185;28;20034;-79
2023/08/09 02:29:58;;;;;;;0.60;0.60;;;;;;;19.40;nan;100329.28;4979325;28;20394;-81
2023/08/09 02:32:23;;;;;;;0.60;0.60;;;;;;;19.40;nan;100335.41;4993135;28;20034;-82
2023/08/09 02:34:48;;;;;;;0.55;0.55;;;;;;;19.39;nan;100322.34;4987995;28;20142;-81
2023/08/09 02:37:14;;;;;;;0.68;0.68;;;;;;;19.39;nan;100320.53;4992968;28;20121;-81
2023/08/09 02:39:39;;;;;;;0.50;0.50;;;;;;;19.40;nan;100326.66;4993802;28;20113;-79
2023/08/09 02:42:04;;;;;;;0.60;0.60;;;;;;;19.40;nan;100324.00;4995401;28;20121;-80
2023/08/09 02:44:32;;;;;;;0.73;0.70;;;;;;;19.40;nan;100330.16;4992330;28;20026;-81
2023/08/09 02:46:58;;;;;;;0.60;0.60;;;;;;;19.39;nan;100325.81;4997716;28;20034;-82
2023/08/09 02:49:23;;;;;;;0.60;0.60;;;;;;;19.39;nan;100325.81;4993853;28;20470;-80
2023/08/09 02:51:49;;;;;;;0.70;0.70;;;;;;;19.39;nan;100324.97;4993267;28;20038;-79
2023/08/09 02:54:14;;;;;;;0.60;0.60;;;;;;;19.40;nan;100331.91;4996411;28;20849;-79
2023/08/09 02:56:39;;;;;;;0.50;0.50;;;;;;;19.39;nan;100323.19;4995227;28;20116;-81
2023/08/09 02:59:05;;;;;;;0.70;0.70;;;;;;;19.40;nan;100327.53;4992436;28;20068;-81
2023/08/09 03:01:30;;;;;;;0.55;0.55;;;;;;;19.40;nan;100329.28;4994668;28;20038;-82
2023/08/09 03:03:56;;;;;;;0.70;0.70;;;;;;;19.39;nan;100328.44;4995169;28;20022;-81
2023/08/09 03:06:22;;;;;;;0.68;0.68;;;;;;;19.39;nan;100325.81;4976538;28;20498;-82
2023/08/09 03:08:48;;;;;;;0.70;0.70;;;;;;;19.40;nan;100321.38;4991728;28;20123;-82
2023/08/09 03:11:14;;;;;;;0.70;0.70;;;;;;;19.40;nan;100329.28;4993134;28;20434;-81
2023/08/09 03:13:39;;;;;;;0.60;0.60;;;;;;;19.40;nan;100322.25;5004735;28;20041;-80
2023/08/09 03:16:05;;;;;;;0.60;0.60;;;;;;;19.39;nan;100327.59;4982342;28;20030;-82
2023/08/09 03:18:31;;;;;;;0.75;0.75;;;;;;;19.40;nan;100329.28;4994797;28;20044;-82
2023/08/09 03:20:56;;;;;;;0.65;0.65;;;;;;;19.39;nan;100324.97;4976739;28;20054;-80
2023/08/09 03:23:22;;;;;;;0.70;0.70;;;;;;;19.38;nan;100329.41;4993070;28;20622;-80
2023/08/09 03:25:47;;;;;;;0.50;0.50;;;;;;;19.39;nan;100333.72;4999645;28;20026;-81
2023/08/09 03:28:12;;;;;;;0.45;0.45;;;;;;;19.39;nan;100330.22;4994226;28;20034;-79
2023/08/09 03:30:38;;;;;;;0.75;0.75;;;;;;;19.40;nan;100337.19;4994251;28;20111;-82
2023/08/09 03:33:04;;;;;;;0.70;0.70;;;;;;;19.39;nan;100330.22;4999772;28;20057;-80
2023/08/09 03:35:29;;;;;;;0.73;0.73;;;;;;;19.39;nan;100336.34;4978616;28;20030;-81
2023/08/09 03:37:55;;;;;;;0.98;0.75;;;;;;;19.39;nan;100336.34;4994524;28;20030;-82
2023/08/09 03:40:20;;;;;;;0.70;0.70;;;;;;;19.39;nan;100333.72;4993588;28;20034;-82
2023/08/09 03:42:45;;;;;;;0.60;0.60;;;;;;;19.40;nan;100337.19;4990302;28;20190;-81
2023/08/09 03:45:11;;;;;;;0.63;0.63;;;;;;;19.38;nan;100337.28;5001781;28;20029;-80
2023/08/09 03:47:36;;;;;;;0.60;0.60;;;;;;;19.39;nan;100338.13;4994890;28;20029;-81
2023/08/09 03:50:06;;;;;;;0.70;0.70;;;;;;;19.39;nan;100330.22;4992558;28;20095;-84
2023/08/09 03:52:32;;;;;;;0.60;0.60;;;;;;;19.39;nan;100332.88;4991777;28;20822;-80
2023/08/09 03:54:57;;;;;;;0.68;0.68;;;;;;;19.38;nan;100324.13;4982589;28;20037;-82
2023/08/09 03:57:23;;;;;;;0.60;0.60;;;;;;;19.39;nan;100325.81;4994569;28;20037;-82
2023/08/09 03:59:51;;;;;;;0.55;0.55;;;;;;;19.39;nan;100325.81;4994783;28;20049;-80
2023/08/09 04:02:17;;;;;;;0.60;0.60;;;;;;;19.39;nan;100333.72;4989882;28;20026;-81
2023/08/09 04:04:43;;;;;;;0.60;0.60;;;;;;;19.39;nan;100340.75;4995602;28;20085;-81
2023/08/09 04:07:09;;;;;;;1.00;0.70;;;;;;;19.38;nan;100332.03;4992130;28;20033;-79
2023/08/09 04:09:35;;;;;;;0.73;0.68;;;;;;;19.38;nan;100336.47;4993556;28;20030;-84
2023/08/09 04:12:01;;;;;;;0.50;0.50;;;;;;;19.38;nan;100353.09;4978268;28;20042;-79
2023/08/09 04:14:26;;;;;;;0.60;0.60;;;;;;;19.39;nan;100351.28;4989617;28;20026;-84
2023/08/09 04:16:52;;;;;;;0.57;0.57;;;;;;;19.38;nan;100350.47;4992247;28;20117;-81
2023/08/09 04:19:17;;;;;;;0.60;0.60;;;;;;;19.38;nan;100342.56;4992233;28;20117;-80
2023/08/09 04:21:43;;;;;;;0.70;0.70;;;;;;;19.39;nan;100343.41;4976451;28;20056;-83
2023/08/09 04:24:12;;;;;;;0.70;0.70;;;;;;;19.39;nan;100335.50;4978728;28;20052;-80
2023/08/09 04:26:38;;;;;;;0.57;0.57;;;;;;;19.39;nan;100346.03;4996848;28;20030;-80
2023/08/09 04:29:03;;;;;;;0.70;0.60;;;;;;;19.38;nan;100341.72;4976725;28;20088;-82
2023/08/09 04:31:29;;;;;;;0.60;0.60;;;;;;;19.39;nan;100348.66;4974863;28;20044;-82
2023/08/09 04:33:54;;;;;;;0.60;0.60;;;;;;;19.39;nan;100341.59;4987083;28;20118;-80
2023/08/09 04:36:20;;;;;;;1.40;0.60;;;;;;;19.38;nan;100347.81;4997154;28;20096;-80
2023/08/09 04:38:45;;;;;;;0.88;0.70;;;;;;;19.39;nan;100348.66;4993494;28;20036;-82
2023/08/09 04:41:11;;;;;;;0.50;0.50;;;;;;;19.39;nan;100348.66;4976821;28;20433;-82
2023/08/09 04:43:38;;;;;;;0.65;0.65;;;;;;;19.39;nan;100353.94;4989515;28;20041;-83
2023/08/09 04:46:03;;;;;;;0.60;0.60;;;;;;;19.39;nan;100348.66;5001354;28;20022;-82
2023/08/09 04:48:29;;;;;;;0.50;0.50;;;;;;;19.39;nan;100352.13;4996804;28;20060;-81
2023/08/09 04:50:55;;;;;;;0.60;0.60;;;;;;;19.39;nan;100348.66;4997783;28;20030;-82
2023/08/09 04:53:21;;;;;;;0.50;0.50;;;;;;;19.39;nan;100349.50;5004388;28;20041;-80
2023/08/09 04:55:46;;;;;;;0.57;0.57;;;;;;;19.38;nan;100347.81;5000805;28;20026;-81
2023/08/09 04:58:12;;;;;;;0.60;0.60;;;;;;;19.39;nan;100351.28;4997334;28;20030;-83
2023/08/09 05:00:38;;;;;;;0.50;0.50;;;;;;;19.39;nan;100351.28;4998329;28;20087;-81
2023/08/09 05:03:04;;;;;;;0.70;0.70;;;;;;;19.39;nan;100348.66;5002673;28;20466;-81
2023/08/09 05:05:30;;;;;;;0.50;0.50;;;;;;;19.39;nan;100349.50;4991941;28;20029;-83
2023/08/09 05:07:56;;;;;;;0.60;0.60;;;;;;;19.39;nan;100346.88;4996704;28;20417;-81
2023/08/09 05:10:21;;;;;;;0.80;0.80;;;;;;;19.39;nan;100353.94;4995712;28;20701;-80
2023/08/09 05:12:47;;;;;;;0.63;0.63;;;;;;;19.39;nan;100354.78;4993607;28;20393;-83
2023/08/09 05:15:12;;;;;;;0.60;0.60;;;;;;;19.40;nan;100352.97;5002989;28;20121;-82
2023/08/09 05:17:37;;;;;;;0.60;0.60;;;;;;;19.39;nan;100353.94;4995504;28;20129;-82
2023/08/09 05:20:03;;;;;;;0.45;0.45;;;;;;;19.39;nan;100348.66;4995870;28;20152;-82
2023/08/09 05:22:28;;;;;;;0.60;0.60;;;;;;;19.38;nan;100349.63;4994334;28;20050;-81
2023/08/09 05:24:54;;;;;;;0.60;0.60;;;;;;;19.38;nan;100354.88;4999140;28;20022;-81
2023/08/09 05:27:20;;;;;;;0.60;0.60;;;;;;;19.40;nan;100355.59;4978455;28;20065;-83
2023/08/09 05:29:45;;;;;;;0.60;0.60;;;;;;;19.39;nan;100359.19;4996466;28;20045;-80
2023/08/09 05:32:11;;;;;;;0.50;0.50;;;;;;;19.38;nan;100365.41;4999743;28;20029;-81
2023/08/09 05:34:37;;;;;;;0.70;0.70;;;;;;;19.39;nan;100367.09;5008961;28;20071;-83
2023/08/09 05:37:02;;;;;;;0.55;0.55;;;;;;;19.39;nan;100372.34;4996138;28;20072;-83
2023/08/09 05:39:28;;;;;;;0.75;0.75;;;;;;;19.39;nan;100381.09;4993896;28;20470;-82
2023/08/09 05:41:53;;;;;;;0.50;0.50;;;;;;;19.38;nan;100371.53;4996678;28;20433;-81
2023/08/09 05:44:18;;;;;;;0.52;0.52;;;;;;;19.38;nan;100368.03;5000504;28;20058;-81
2023/08/09 05:46:44;;;;;;;0.55;0.55;;;;;;;19.39;nan;100372.34;4992988;28;20015;-82
2023/08/09 05:49:09;;;;;;;0.60;0.60;;;;;;;19.39;nan;100369.72;4995954;28;20029;-81
2023/08/09 05:51:35;;;;;;;0.50;0.50;;;;;;;19.40;nan;100374.03;4995972;28;20398;-82
2023/08/09 05:54:03;;;;;;;0.60;0.60;;;;;;;19.39;nan;100367.09;5003792;28;20117;-81
2023/08/09 05:56:29;;;;;;;0.60;0.60;;;;;;;19.39;nan;100373.19;4992426;28;20462;-81
2023/08/09 05:58:55;;;;;;;0.63;0.63;;;;;;;19.40;nan;100379.31;4997309;28;20064;-80
2023/08/09 06:01:21;;;;;;;0.50;0.50;;;;;;;19.40;nan;100379.31;4995961;28;20048;-81
2023/08/09 06:03:47;;;;;;;0.70;0.70;;;;;;;19.40;nan;100392.47;4998359;28;20060;-79
2023/08/09 06:06:14;;;;;;;0.50;0.50;;;;;;;19.39;nan;100386.34;4985655;28;20026;-81
2023/08/09 06:08:39;;;;;;;0.70;0.70;;;;;;;19.39;nan;100388.16;4994684;28;20061;-80
2023/08/09 06:11:08;;;;;;;0.70;0.70;;;;;;;19.40;nan;100387.19;4996003;28;20068;-80
2023/08/09 06:13:34;;;;;;;0.70;0.70;;;;;;;19.39;nan;100386.34;4991451;28;20045;-83
2023/08/09 06:15:59;;;;;;;0.60;0.60;;;;;;;19.39;nan;100396.88;4999802;28;20402;-82
2023/08/09 06:18:24;;;;;;;0.60;0.60;;;;;;;19.39;nan;100388.16;4993653;28;20125;-78
2023/08/09 06:20:51;;;;;;;0.60;0.60;;;;;;;19.39;nan;100389.00;4994703;28;20494;-79
2023/08/09 06:23:16;;;;;;;0.60;0.60;;;;;;;19.39;nan;100393.41;4997361;28;20026;-81
2023/08/09 06:25:41;;;;;;;0.60;0.60;;;;;;;19.40;nan;100403.00;5000405;28;20477;-81
2023/08/09 06:28:07;;;;;;;0.63;0.63;;;;;;;19.38;nan;100395.22;4995349;28;20022;-82
2023/08/09 06:30:33;;;;;;;0.63;0.63;;;;;;;19.40;nan;100403.00;4986394;28;20034;-80
2023/08/09 06:32:59;;;;;;;0.68;0.68;;;;;;;19.41;nan;100409.97;4982621;28;20038;-81
2023/08/09 06:35:24;;;;;;;0.63;0.63;;;;;;;19.41;nan;100409.97;4989201;28;20041;-82
2023/08/09 06:37:51;;;;;;;0.45;0.45;;;;;;;19.40;nan;100409.13;4993814;28;20132;-82
2023/08/09 06:40:17;;;;;;;0.52;0.52;;;;;;;19.41;nan;100420.50;4994445;28;20050;-80
2023/08/09 06:42:43;;;;;;;0.50;0.50;;;;;;;19.41;nan;100415.25;4995135;28;20038;-82
2023/08/09 06:45:09;;;;;;;0.50;0.50;;;;;;;19.41;nan;100415.25;4995703;28;20028;-81
2023/08/09 06:47:35;;;;;;;0.60;0.60;;;;;;;19.41;nan;100417.88;4979204;28;20057;-80
2023/08/09 06:50:06;;;;;;;0.70;0.70;;;;;;;19.41;nan;100408.19;4993021;28;20061;-84
2023/08/09 06:52:33;;;;;;;0.47;0.47;;;;;;;19.42;nan;100416.91;4998490;28;20380;-83
2023/08/09 06:54:58;;;;;;;0.43;0.43;;;;;;;19.42;nan;100416.91;4995677;28;20533;-83
2023/08/09 06:57:24;;;;;;;0.60;0.60;;;;;;;19.43;nan;100413.31;4995230;28;20164;-83
2023/08/09 06:59:51;;;;;;;0.70;0.70;;;;;;;19.42;nan;100419.53;4994074;28;20027;-84
2023/08/09 07:02:16;;;;;;;0.60;0.60;;;;;;;19.42;nan;100415.13;4995861;28;20041;-81
2023/08/09 07:04:42;;;;;;;0.73;0.73;;;;;;;19.43;nan;100415.97;4974503;28;20038;-81
2023/08/09 07:07:07;;;;;;;0.60;0.60;;;;;;;19.43;nan;100423.84;4990815;28;20030;-82
2023/08/09 07:09:33;;;;;;;0.65;0.65;;;;;;;19.42;nan;100428.28;4992945;28;20053;-81
2023/08/09 07:11:58;;;;;;;0.68;0.55;;;;;;;19.42;nan;100420.38;4992770;28;21484;-79
2023/08/09 07:14:24;;;;;;;0.60;0.60;;;;;;;19.43;nan;100419.44;4996357;28;20104;-82
2023/08/09 07:16:49;;;;;;;0.60;0.60;;;;;;;19.45;nan;100432.47;4994935;28;20029;-82
2023/08/09 07:19:15;;;;;;;0.80;0.80;;;;;;;19.43;nan;100427.34;4992939;28;20084;-80
2023/08/09 07:21:40;;;;;;;0.60;0.60;;;;;;;19.45;nan;100427.22;4994255;28;20045;-83
2023/08/09 07:24:06;;;;;;;0.60;0.60;;;;;;;19.45;nan;100445.66;4998439;28;20019;-83
2023/08/09 07:26:31;;;;;;;0.60;0.60;;;;;;;19.44;nan;100438.69;4995937;28;20079;-80
2023/08/09 07:28:57;;;;;;;1.85;0.70;;;;;;;19.45;nan;100435.13;4992955;28;20057;-79
2023/08/09 07:31:23;;;;;;;0.60;0.60;;;;;;;19.45;nan;100443.00;4994685;28;20060;-81
2023/08/09 07:33:49;;;;;;;0.70;0.70;;;;;;;19.44;nan;100446.59;4987152;28;20029;-82
2023/08/09 07:36:15;;;;;;;0.60;0.60;;;;;;;19.44;nan;100446.59;5000262;28;20034;-81
2023/08/09 07:38:40;;;;;;;0.95;0.70;;;;;;;19.44;nan;100444.81;4992631;28;20056;-82
2023/08/09 07:41:06;;;;;;;0.68;0.68;;;;;;;19.44;nan;100449.22;4994076;28;20059;-81
2023/08/09 07:43:31;;;;;;;0.70;0.70;;;;;;;19.43;nan;100451.03;5001383;28;20079;-82
2023/08/09 07:45:58;;;;;;;0.60;0.60;;;;;;;19.44;nan;100467.66;5002221;28;20089;-79
2023/08/09 07:48:23;;;;;;;0.57;0.57;;;;;;;19.44;nan;100470.28;4993249;28;20470;-82
2023/08/09 07:50:48;;;;;;;0.45;0.45;;;;;;;19.43;nan;100460.72;4992767;28;20030;-81
2023/08/09 07:53:14;;;;;;;0.60;0.60;;;;;;;19.43;nan;100472.09;4996520;28;20028;-82
2023/08/09 07:55:39;;;;;;;0.75;0.70;;;;;;;19.44;nan;100472.94;4995056;28;20060;-83
2023/08/09 07:58:05;;;;;;;0.60;0.60;;;;;;;19.43;nan;100471.25;4994730;28;20753;-82
2023/08/09 08:00:31;;;;;;;0.70;0.70;;;;;;;19.43;nan;100471.25;4979184;28;20038;-82
2023/08/09 08:02:56;;;;;;;0.57;0.57;;;;;;;19.44;nan;100480.81;5003221;28;20026;-82
2023/08/09 08:05:22;;;;;;;0.70;0.70;;;;;;;19.44;nan;100486.09;4997899;28;20345;-83
2023/08/09 08:07:47;;;;;;;0.63;0.52;;;;;;;19.43;nan;100487.88;4992944;28;20054;-82
2023/08/09 08:10:14;;;;;;;0.57;0.57;;;;;;;19.44;nan;100494.00;4975891;28;20030;-80
2023/08/09 08:12:40;;;;;;;0.68;0.68;;;;;;;19.44;nan;100494.00;4998996;28;20362;-82
2023/08/09 08:15:06;;;;;;;0.57;0.57;;;;;;;19.44;nan;100500.09;5002055;28;20033;-80
2023/08/09 08:17:33;;;;;;;0.50;0.50;;;;;;;19.44;nan;100496.63;4993351;28;20026;-82
2023/08/09 08:19:59;;;;;;;0.63;0.63;;;;;;;19.44;nan;100505.38;4994240;28;20486;-83
2023/08/09 08:22:24;;;;;;;0.70;0.60;;;;;;;19.44;nan;100504.53;4994970;28;20060;-83
2023/08/09 08:24:49;;;;;;;0.60;0.60;;;;;;;19.44;nan;100512.41;4970181;28;20026;-82
2023/08/09 08:27:15;;;;;;;0.55;0.55;;;;;;;19.44;nan;100513.25;4993988;28;20065;-82
2023/08/09 08:29:40;;;;;;;0.57;0.57;;;;;;;19.44;nan;100509.78;4994679;28;20038;-83
2023/08/09 08:32:06;;;;;;;0.60;0.60;;;;;;;19.44;nan;100515.91;4994164;28;20029;-82
2023/08/09 08:34:31;;;;;;;0.60;0.60;;;;;;;19.44;nan;100515.06;4997742;28;20465;-84
2023/08/09 08:37:00;;;;;;;0.70;0.70;;;;;;;19.44;nan;100515.91;4994408;28;20030;-82
2023/08/09 08:39:28;;;;;;;0.70;0.70;;;;;;;19.45;nan;100514.94;4991767;28;20117;-81
2023/08/09 08:41:54;;;;;;;0.60;0.60;;;;;;;19.46;nan;100507.91;4993200;28;20048;-81
2023/08/09 08:44:23;;;;;;;0.60;0.60;;;;;;;19.47;nan;100507.81;4994852;28;20045;-85
2023/08/09 08:46:49;;;;;;;0.60;0.60;;;;;;;19.49;nan;100507.69;4991176;28;20501;-83
2023/08/09 08:49:19;;;;;;;0.60;0.60;;;;;;;19.49;nan;100516.44;4976466;28;20031;-83
2023/08/09 08:51:44;;;;;;;;;;;;;;;19.50;nan;100512.84;4992667;28;20030;-82
2023/08/09 08:54:12;;;;;;;0.70;0.70;;;;;;;19.66;nan;100519.72;4980675;28;19936;-83
2023/08/09 08:56:37;;;;;;;1.50;0.60;;;;;;;19.74;nan;100518.25;4978716;28;20030;-83
2023/08/09 08:59:03;;;;;;;4.47;1.00;;;;;;;19.80;nan;100515.19;4992513;28;20035;-85
2023/08/09 09:01:30;;;;;;;5.78;1.17;;;;;;;19.85;nan;100522.75;4993991;28;20478;-84
2023/08/09 09:03:57;;;;;;;10.05;1.73;;;;;;;19.84;nan;100529.81;4994364;28;20485;-84
2023/08/09 09:06:23;;;;;;;4.82;1.45;;;;;;;19.82;nan;100521.16;4995667;28;20033;-84
2023/08/09 09:08:54;;;;;;;7.40;1.50;;;;;;;19.78;nan;100527.59;4994575;28;20713;-85
2023/08/09 09:11:21;;;;;;;4.65;1.58;;;;;;;19.80;nan;100522.25;4993213;28;20033;-83
2023/08/09 09:13:48;;;;;;;4.82;1.20;;;;;;;19.82;nan;100531.72;4984070;28;20057;-84
2023/08/09 09:16:14;;;;;;;11.93;1.67;;;;;;;19.87;nan;100526.13;4995638;28;20048;-86
2023/08/09 09:18:47;;;;;;;11.25;1.77;;;;;;;19.88;nan;100525.16;4994710;28;20036;-85
2023/08/09 09:21:14;;;;;;;25.77;2.22;;;;;;;19.90;nan;100520.63;4994047;28;20114;-84
2023/08/09 09:23:39;;;;;;;14.30;2.50;;;;;;;19.90;nan;100528.53;4995524;28;20065;-84
2023/08/09 09:26:10;;;;;;;8.82;2.42;;;;;;;19.86;nan;100534.97;4978283;28;20033;-84
2023/08/09 09:28:41;;;;;;;8.25;2.65;;;;;;;19.88;nan;100537.50;4994041;28;20034;-86
2023/08/09 09:31:08;;;;;;;11.43;2.75;;;;;;;19.90;nan;100532.97;4995180;28;20034;-88
2023/08/09 09:33:34;;;;;;;8.57;2.50;;;;;;;19.87;nan;100539.31;4999876;28;20025;-87
2023/08/09 09:36:01;;;;;;;9.25;2.20;;;;;;;19.83;nan;100538.66;4996377;28;20054;-85
2023/08/09 09:38:26;;;;;;;4.63;2.38;;;;;;;19.80;nan;100543.31;4997246;28;20479;-85
2023/08/09 09:40:52;;;;;;;5.50;2.83;;;;;;;19.91;nan;100545.19;4996616;28;20077;-82
2023/08/09 09:43:17;;;;;;;9.93;2.22;;;;;;;20.01;nan;100543.59;5000915;28;20084;-82
2023/08/09 09:45:44;;;;;;;9.30;3.00;;;;;;;20.03;nan;100542.53;4985762;28;20562;-83
2023/08/09 09:48:16;;;;;;;6.05;2.53;;;;;;;20.00;nan;100540.09;4981431;28;20022;-88
2023/08/09 09:50:43;;;;;;;6.57;2.47;;;;;;;20.03;nan;100539.91;4972946;28;20030;-82
2023/08/09 09:53:10;;;;;;;6.35;2.50;;;;;;;20.02;nan;100542.63;4993195;28;20022;-83
2023/08/09 09:55:36;;;;;;;3.97;2.35;;;;;;;19.89;nan;100539.19;5001866;28;20030;-84
2023/08/09 09:58:01;;;;;;;4.22;2.33;;;;;;;19.88;nan;100542.78;4979311;28;20092;-81
2023/08/09 10:00:27;;;;;;;7.57;2.70;;;;;;;19.89;nan;100536.56;4997492;28;20045;-82
2023/08/09 10:02:53;;;;;;;6.57;2.83;;;;;;;19.89;nan;100542.66;4997994;28;20038;-85
2023/08/09 10:05:25;;;;;;;11.25;2.88;;;;;;;19.97;nan;100542.13;4987166;28;20036;-87
2023/08/09 10:07:51;;;;;;;15.30;3.00;;;;;;;20.04;nan;100538.09;4995562;28;20026;-86
2023/08/09 10:10:17;;;;;;;20.53;4.07;;;;;;;20.20;nan;100525.53;4991385;28;20429;-78
2023/08/09 10:12:54;;;;;;;9.50;3.17;;;;;;;20.09;nan;100538.63;5000255;28;20429;-76
2023/08/09 10:15:31;;;;;;;16.70;3.42;;;;;;;20.00;nan;100536.63;5004681;28;20137;-77
2023/08/09 10:17:59;;;;;;;20.95;3.53;;;;;;;20.01;nan;100535.69;4992440;28;20431;-76
2023/08/09 10:20:25;;;;;;;12.52;3.42;;;;;;;19.97;nan;100542.13;4992782;28;21443;-79
2023/08/09 10:22:50;;;;;;;9.02;3.00;;;;;;;19.92;nan;100533.72;4990302;28;20018;-78
2023/08/09 10:25:16;;;;;;;16.27;4.28;;;;;;;19.89;nan;100536.56;4987160;28;20026;-78
2023/08/09 10:28:00;;;;;;;9.27;3.80;;;;;;;19.86;nan;100537.63;4994110;28;20053;-79
2023/08/09 10:30:28;;;;;;;11.60;2.90;;;;;;;19.84;nan;100542.97;4993142;28;20122;-79
2023/08/09 10:32:56;;;;;;;10.05;2.63;;;;;;;19.82;nan;100546.69;4991056;28;20030;-82
2023/08/09 10:35:44;;;;;;;9.18;2.92;;;;;;;19.80;nan;100541.53;4987698;28;20121;-78
2023/08/09 10:38:18;;;;;;;6.47;2.88;;;;;;;20.00;nan;100544.53;4992140;28;20112;-81
2023/08/09 10:40:48;;;;;;;10.35;3.10;;;;;;;20.42;nan;100529.22;4992355;28;20030;-81
2023/08/09 10:43:18;;;;;;;9.27;2.78;;;;;;;20.81;nan;100541.31;5001514;28;20504;-77
2023/08/09 10:45:48;;;;;;;8.13;2.25;;;;;;;20.89;nan;100539.81;4979767;28;20129;-78
2023/08/09 10:48:25;;;;;;;6.30;2.47;;;;;;;20.98;nan;100537.44;4992273;28;20436;-79
2023/08/09 10:51:12;;;;;;;6.43;1.90;;;;;;;20.80;nan;100537.84;4992375;28;20176;-78
2023/08/09 10:54:02;;;;;;;14.98;3.00;;;;;;;20.45;nan;100543.03;4992297;28;20038;-79
2023/08/09 10:56:43;;;;;;;8.38;2.50;;;;;;;20.27;nan;100537.31;4989217;28;20517;-77
2023/08/09 10:59:13;;;;;;;10.00;2.58;;;;;;;20.15;nan;100542.63;4992265;28;20029;-79
2023/08/09 11:01:39;;;;;;;13.98;2.42;;;;;;;20.07;nan;100540.50;4975885;28;20037;-79
2023/08/09 11:04:06;;;;;;;9.85;2.08;;;;;;;20.01;nan;100535.69;5005958;28;20393;-78
2023/08/09 11:06:39;;;;;;;2.80;2.00;;;;;;;19.98;nan;100547.28;4997464;28;20041;-77
2023/08/09 11:09:12;;;;;;;6.10;2.10;;;;;;;19.95;nan;100541.38;4990439;28;20022;-75
2023/08/09 11:11:40;;;;;;;6.20;2.35;;;;;;;19.95;nan;100546.66;4992836;28;20572;-78
2023/08/09 11:14:06;;;;;;;5.35;2.05;;;;;;;19.92;nan;100542.47;4985879;28;20092;-76
2023/08/09 11:16:31;;;;;;;6.18;2.20;;;;;;;19.91;nan;100537.28;4990850;28;20077;-76
2023/08/09 11:19:01;;;;;;;8.60;2.90;;;;;;;19.89;nan;100539.19;4975495;28;20045;-76
2023/08/09 11:21:27;;;;;;;5.30;2.22;;;;;;;19.90;nan;100551.41;4990303;28;20395;-77
2023/08/09 11:23:57;;;;;;;7.88;2.30;;;;;;;19.88;nan;100545.41;4992460;28;20084;-76
2023/08/09 11:26:23;;;;;;;2.08;1.90;;;;;;;19.87;nan;100538.47;4988477;28;20022;-77
2023/08/09 11:28:48;;;;;;;4.40;1.90;;;;;;;19.87;nan;100538.47;4991579;28;20041;-78
2023/08/09 11:31:13;;;;;;;5.45;2.08;;;;;;;19.84;nan;100539.50;4992716;28;20034;-77
2023/08/09 11:33:39;;;;;;;3.90;2.05;;;;;;;19.84;nan;100542.13;5003074;28;20116;-78
2023/08/09 11:36:04;;;;;;;5.55;2.13;;;;;;;19.84;nan;100540.34;5000273;28;20058;-77
2023/08/09 11:38:29;;;;;;;4.68;2.05;;;;;;;19.84;nan;100550.03;4991311;28;20030;-76